Pagrindinis puslapis
METAR-TAF:

METAR-TAF

Oro uostai :

Posadasas, Argentina

platuma: 27-22S, ilguma: 055-58W, Aukštis: 131 m

Dabartinis oras

Ataskaita buvo paskelbta 47 minutes, ne 17:00 UTC
Vėjas 7 kt iš Šiaurės Vakarų
Temperatūra 33°C
Drėgmė 49%
Slėgis 1014 hPa
Matomumas 10 km arba daugiau
Mažai debesys ne aukštis 2000 ft
Išsisklaidę debesys ne aukštis 20000 ft

METAR: SARP 311700Z 32007KT 9999 FEW020 SCT200 33/21 Q1014

Laikas: 14:47 (17:47 UTC)

Prognozė

Ataskaita buvo paskelbta 47 minutes, ne 17:00 UTC
Prognozė galioja nuo 31 metu 18 UTC su 01 metu 18 UTC
Vėjas 5 kt iš Šiaurės Vakarų
Matomumas 10 km arba daugiau
Mažai debesys ne aukštis 2000 ft
Tapsmas
nuo 31 metu 21 UTC su 31 metu 23 UTC
Matomumas 10 km arba daugiau
nėra debesų žemiau 1500 m ir nėra kamuolinių lietaus debesų
Tikimybė 30%
nuo 01 metu 08 UTC su 01 metu 11 UTC
Matomumas: 1500 m
rūkana

TAF: SARP 311700Z 3118/0118 32005KT 9999 FEW020 TX33/3117Z TN22/0109Z BECMG 3121/3123 CAVOK PROB30 0108/0111 1500 BR NSC

Orai ataskaitas ir orų prognozės (METAR, TAF).

turimą stotys yra geltonos ir raudonos taškus žemėlapyje.

Perkelti pele per norėdami pamatyti stoties vardą.

Tada spustelėkite, norėdami matyti oro stebėjimo ir prognozės.

Norėdami pakeisti žemėlapį: spustelėkite ant žalios mygtukų su juodo kryžiaus žemyn,; žalią mygtuką su brūkšneliu, jei norite nutolinti; arba žalių rodyklių gretimoms žemėlapius.


METAR-TAF: